createdAt,value
2023-05-12T00:00:53.884Z,11.97
2023-05-12T00:03:22.309Z,8.57
2023-05-12T00:05:50.595Z,7.83
2023-05-12T00:08:18.773Z,9.93
2023-05-12T00:10:46.890Z,8.27
2023-05-12T00:13:15.187Z,7.13
2023-05-12T00:15:44.706Z,7.30
2023-05-12T00:18:12.918Z,9.97
2023-05-12T00:20:41.083Z,10.57
2023-05-12T00:23:09.238Z,6.90
2023-05-12T00:25:37.386Z,6.57
2023-05-12T00:28:05.589Z,6.30
2023-05-12T00:30:33.793Z,8.20
2023-05-12T00:33:03.420Z,6.33
2023-05-12T00:35:31.565Z,6.10
2023-05-12T00:37:59.721Z,7.37
2023-05-12T00:40:27.918Z,7.23
2023-05-12T00:42:56.027Z,7.13
2023-05-12T00:45:24.402Z,6.47
2023-05-12T00:47:53.431Z,6.47
2023-05-12T00:50:23.275Z,5.90
2023-05-12T00:52:51.624Z,6.53
2023-05-12T00:55:19.901Z,7.00
2023-05-12T00:57:48.103Z,5.27
2023-05-12T01:00:16.484Z,5.47
2023-05-12T01:02:44.738Z,6.73
2023-05-12T01:05:13.285Z,5.40
2023-05-12T01:07:43.971Z,5.40
2023-05-12T01:10:19.372Z,5.23
2023-05-12T01:12:48.261Z,6.67
2023-05-12T01:15:16.584Z,5.73
2023-05-12T01:17:47.006Z,6.77
2023-05-12T01:20:16.949Z,5.10
2023-05-12T01:22:47.891Z,6.10
2023-05-12T01:25:16.710Z,5.50
2023-05-12T01:27:46.874Z,5.53
2023-05-12T01:30:17.788Z,4.90
2023-05-12T01:32:46.457Z,5.27
2023-05-12T01:35:14.630Z,5.33
2023-05-12T01:37:42.746Z,5.20
2023-05-12T01:40:11.313Z,6.93
2023-05-12T01:42:40.950Z,6.93
2023-05-12T01:45:11.340Z,7.60
2023-05-12T01:47:39.539Z,6.80
2023-05-12T01:50:08.119Z,9.43
2023-05-12T01:52:36.779Z,7.63
2023-05-12T01:55:05.110Z,9.67
2023-05-12T01:57:33.824Z,9.63
2023-05-12T02:00:02.006Z,7.63
2023-05-12T02:02:33.913Z,9.63
2023-05-12T02:05:02.086Z,10.80
2023-05-12T02:07:30.269Z,9.57
2023-05-12T02:09:58.486Z,7.93
2023-05-12T02:12:26.648Z,10.17
2023-05-12T02:14:54.843Z,10.60
2023-05-12T02:17:25.110Z,9.60
2023-05-12T02:19:54.742Z,9.50
2023-05-12T02:22:22.890Z,9.53
2023-05-12T02:24:51.076Z,12.33
2023-05-12T02:27:19.197Z,12.23
2023-05-12T02:29:47.390Z,10.20
2023-05-12T02:32:15.546Z,10.57
2023-05-12T02:34:43.658Z,11.33
2023-05-12T02:37:13.095Z,16.90
2023-05-12T02:39:41.253Z,11.33
2023-05-12T02:42:09.525Z,11.93
2023-05-12T02:44:37.694Z,10.80
2023-05-12T02:47:06.048Z,12.30
2023-05-12T02:49:34.246Z,14.33
2023-05-12T02:52:02.560Z,16.93
2023-05-12T02:54:32.054Z,11.47
2023-05-12T02:57:01.868Z,13.63
2023-05-12T02:59:30.644Z,12.17
2023-05-12T03:01:58.840Z,10.93
2023-05-12T03:04:27.318Z,12.63
2023-05-12T03:06:55.420Z,11.10
2023-05-12T03:09:23.587Z,14.77
2023-05-12T03:11:53.088Z,9.43
2023-05-12T03:14:21.536Z,8.10
2023-05-12T03:16:49.759Z,12.13
2023-05-12T03:19:17.914Z,9.13
2023-05-12T03:21:46.124Z,10.87
2023-05-12T03:24:14.261Z,11.27
2023-05-12T03:26:42.454Z,10.97
2023-05-12T03:29:11.927Z,11.33
2023-05-12T03:31:40.114Z,8.27
2023-05-12T03:34:08.401Z,9.67
2023-05-12T03:36:37.307Z,9.87
2023-05-12T03:39:05.586Z,8.77
2023-05-12T03:41:33.844Z,7.77
2023-05-12T03:44:02.040Z,8.33
2023-05-12T03:46:31.726Z,7.43
2023-05-12T03:49:00.071Z,7.27
2023-05-12T03:51:28.847Z,8.77
2023-05-12T03:53:57.008Z,10.73
2023-05-12T03:56:25.140Z,10.00
2023-05-12T03:58:53.327Z,10.00
2023-05-12T04:01:21.519Z,10.93
2023-05-12T04:03:51.120Z,14.07
2023-05-12T04:06:19.389Z,15.07
2023-05-12T04:08:47.542Z,19.47
2023-05-12T04:11:15.724Z,15.03
2023-05-12T04:13:43.981Z,14.20
2023-05-12T04:16:12.231Z,14.70
2023-05-12T04:18:40.450Z,16.23
2023-05-12T04:21:10.023Z,12.00
2023-05-12T04:23:38.250Z,12.87
2023-05-12T04:26:06.393Z,17.77
2023-05-12T04:28:34.579Z,15.27
2023-05-12T04:31:05.933Z,17.10
2023-05-12T04:33:34.136Z,20.30
2023-05-12T04:36:02.403Z,22.57
2023-05-12T04:38:31.938Z,26.63
2023-05-12T04:41:00.414Z,27.03
2023-05-12T04:46:00.369Z,32.37
2023-05-12T04:48:29.166Z,32.03
2023-05-12T04:50:57.319Z,34.23
2023-05-12T04:53:25.530Z,40.83
2023-05-12T04:55:56.454Z,34.43
2023-05-12T04:58:24.655Z,27.07
2023-05-12T05:00:52.927Z,27.67
2023-05-12T05:03:21.322Z,36.77
2023-05-12T05:05:49.919Z,36.67
2023-05-12T05:08:18.382Z,43.87
2023-05-12T05:10:46.630Z,50.20
2023-05-12T05:13:16.504Z,47.20
2023-05-12T05:15:51.084Z,51.93
2023-05-12T05:18:21.690Z,56.83
2023-05-12T05:20:57.827Z,54.37
2023-05-12T05:23:27.104Z,70.07
2023-05-12T05:25:55.464Z,65.77
2023-05-12T05:28:26.514Z,64.83
2023-05-12T05:30:54.736Z,64.00
2023-05-12T05:33:22.956Z,75.10
2023-05-12T05:35:51.207Z,62.37
2023-05-12T05:38:19.473Z,63.90
2023-05-12T05:40:53.533Z,61.20
2023-05-12T05:43:22.607Z,68.17
2023-05-12T05:45:52.202Z,74.13
2023-05-12T05:48:20.840Z,72.20
2023-05-12T05:50:49.154Z,72.93
2023-05-12T05:53:18.283Z,79.23
2023-05-12T05:55:46.569Z,74.80
2023-05-12T05:58:15.365Z,85.50
2023-05-12T06:00:43.703Z,77.97
2023-05-12T06:03:13.293Z,74.27
2023-05-12T06:05:42.202Z,75.93
2023-05-12T06:08:13.100Z,78.43
2023-05-12T06:10:42.014Z,98.07
2023-05-12T06:13:10.247Z,77.50
2023-05-12T06:15:38.495Z,83.13
2023-05-12T06:18:06.842Z,80.73
2023-05-12T06:20:36.545Z,91.10
2023-05-12T06:23:05.529Z,96.83
2023-05-12T06:25:34.163Z,101.27
2023-05-12T06:28:02.420Z,105.67
2023-05-12T06:30:30.609Z,114.93
2023-05-12T06:32:59.474Z,109.87
2023-05-12T06:35:27.687Z,107.07
2023-05-12T06:37:57.120Z,106.63
2023-05-12T06:40:25.356Z,113.10
2023-05-12T06:42:53.455Z,117.13
2023-05-12T06:45:23.433Z,129.13
2023-05-12T06:47:52.034Z,148.33
2023-05-12T06:50:20.325Z,158.40
2023-05-12T06:52:48.524Z,167.10
2023-05-12T06:55:20.053Z,163.27
2023-05-12T06:57:51.450Z,166.97
2023-05-12T07:00:19.988Z,157.47
2023-05-12T07:02:48.190Z,178.23
2023-05-12T07:05:16.606Z,215.33
2023-05-12T07:07:44.818Z,212.10
2023-05-12T07:10:13.162Z,177.67
2023-05-12T07:12:42.768Z,182.23
2023-05-12T07:15:11.308Z,174.93
2023-05-12T07:17:39.533Z,194.77
2023-05-12T07:20:08.781Z,185.93
2023-05-12T07:22:38.769Z,193.53
2023-05-12T07:25:08.156Z,189.07
2023-05-12T07:27:36.377Z,208.70
2023-05-12T07:30:06.188Z,211.27
2023-05-12T07:32:34.458Z,229.77
2023-05-12T07:35:03.648Z,225.07
2023-05-12T07:37:31.889Z,216.60
2023-05-12T07:40:00.078Z,221.57
2023-05-12T07:42:28.305Z,215.10
2023-05-12T07:44:56.482Z,196.63
2023-05-12T07:47:26.073Z,154.67
2023-05-12T07:49:54.276Z,145.37
2023-05-12T07:52:22.425Z,145.03
2023-05-12T07:54:50.610Z,96.07
2023-05-12T07:57:18.747Z,99.03
2023-05-12T07:59:46.927Z,80.30
2023-05-12T08:02:17.112Z,72.43
2023-05-12T08:04:46.642Z,65.17
2023-05-12T08:07:15.668Z,90.20
2023-05-12T08:09:43.844Z,87.60
2023-05-12T08:12:12.185Z,83.53
2023-05-12T08:14:40.396Z,112.90
2023-05-12T08:17:08.587Z,122.23
2023-05-12T08:19:36.848Z,55.43
2023-05-12T08:22:06.585Z,40.23
2023-05-12T08:24:34.714Z,43.50
2023-05-12T08:27:02.957Z,47.63
2023-05-12T08:29:31.137Z,29.53
2023-05-12T08:31:59.678Z,23.87
2023-05-12T08:34:27.997Z,21.27
2023-05-12T08:36:56.537Z,20.33
2023-05-12T08:39:28.691Z,19.77
2023-05-12T08:42:02.195Z,20.20
2023-05-12T08:44:31.276Z,20.53
2023-05-12T08:47:00.116Z,20.67
2023-05-12T08:49:31.148Z,20.57
2023-05-12T08:52:00.124Z,20.90
2023-05-12T08:54:30.354Z,19.67
2023-05-12T08:59:30.139Z,20.40
2023-05-12T09:01:58.613Z,19.53
2023-05-12T09:04:27.011Z,20.13
2023-05-12T09:06:56.077Z,19.80
2023-05-12T09:09:25.444Z,19.33
2023-05-12T09:11:58.187Z,19.77
2023-05-12T09:14:27.034Z,19.57
2023-05-12T09:16:59.466Z,20.13
2023-05-12T09:19:27.790Z,19.43
2023-05-12T09:21:56.037Z,21.30
2023-05-12T09:24:34.947Z,18.07
2023-05-12T09:27:04.868Z,18.77
2023-05-12T09:29:39.420Z,19.00
2023-05-12T09:32:13.405Z,17.80
2023-05-12T09:34:41.765Z,18.57
2023-05-12T09:37:10.005Z,18.67
2023-05-12T09:39:38.429Z,20.47
2023-05-12T09:42:13.463Z,18.80
2023-05-12T09:44:42.379Z,21.03
2023-05-12T09:47:10.831Z,18.27
2023-05-12T09:49:39.089Z,18.83
2023-05-12T09:52:07.570Z,18.47
2023-05-12T09:54:36.432Z,17.70
2023-05-12T09:57:05.655Z,19.40
2023-05-12T09:59:36.416Z,17.63
2023-05-12T10:02:07.360Z,17.97
2023-05-12T10:04:40.183Z,15.97
2023-05-12T10:07:10.491Z,16.03
2023-05-12T10:09:42.018Z,15.33
2023-05-12T10:12:10.847Z,12.93
2023-05-12T10:14:40.532Z,14.10
2023-05-12T10:17:09.430Z,14.53
2023-05-12T10:19:38.752Z,16.67
2023-05-12T10:22:07.525Z,13.97
2023-05-12T10:24:36.544Z,14.10
2023-05-12T10:27:06.646Z,14.20
2023-05-12T10:29:35.408Z,13.70
2023-05-12T10:32:06.388Z,12.27
2023-05-12T10:34:35.130Z,13.83
2023-05-12T10:37:08.199Z,13.57
2023-05-12T10:39:36.958Z,14.57
2023-05-12T10:42:08.335Z,15.50
2023-05-12T10:44:36.870Z,15.10
2023-05-12T10:47:14.563Z,15.30
2023-05-12T10:49:43.167Z,14.87
2023-05-12T10:52:12.983Z,15.33
2023-05-12T10:54:44.245Z,14.88
2023-05-12T10:57:18.767Z,14.70
2023-05-12T10:59:51.787Z,16.70
2023-05-12T11:02:27.619Z,16.27
2023-05-12T11:04:58.012Z,18.48
2023-05-12T11:07:27.857Z,17.23
2023-05-12T11:09:58.949Z,17.30
2023-05-12T11:12:32.453Z,17.38
2023-05-12T11:15:01.705Z,16.83
2023-05-12T11:17:31.935Z,19.17
2023-05-12T11:20:01.037Z,17.98
2023-05-12T11:22:29.371Z,17.90
2023-05-12T11:24:57.660Z,18.63
2023-05-12T11:27:25.902Z,17.77
2023-05-12T11:29:57.837Z,16.70
2023-05-12T11:32:26.173Z,19.10
2023-05-12T11:34:55.795Z,18.67
2023-05-12T11:37:24.244Z,16.73
2023-05-12T11:39:53.685Z,17.30
2023-05-12T11:42:23.695Z,17.45
2023-05-12T11:44:55.338Z,19.13
2023-05-12T11:47:23.640Z,18.65
2023-05-12T11:49:52.645Z,15.80
2023-05-12T11:52:23.302Z,15.55
2023-05-12T11:54:52.108Z,16.17
2023-05-12T11:57:27.226Z,19.58
2023-05-12T11:59:58.955Z,17.63
2023-05-12T12:02:27.403Z,18.63
2023-05-12T12:04:55.686Z,17.65
2023-05-12T12:07:32.407Z,17.13
2023-05-12T12:10:01.834Z,16.00
2023-05-12T12:12:29.980Z,15.60
2023-05-12T12:15:00.207Z,16.20
2023-05-12T12:17:31.223Z,15.27
2023-05-12T12:19:59.502Z,15.75
2023-05-12T12:22:28.023Z,16.00
2023-05-12T12:24:57.561Z,16.75
2023-05-12T12:27:25.984Z,13.50
2023-05-12T12:29:54.276Z,10.25
2023-05-12T12:32:22.430Z,9.32
2023-05-12T12:34:50.639Z,10.05
2023-05-12T12:37:18.818Z,8.52
2023-05-12T12:39:47.698Z,9.15
2023-05-12T12:42:17.462Z,10.20
2023-05-12T12:44:47.937Z,8.15
2023-05-12T12:47:16.166Z,7.47
2023-05-12T12:49:44.890Z,9.82
2023-05-12T12:52:13.064Z,11.63
2023-05-12T12:54:41.907Z,13.48
2023-05-12T12:57:10.845Z,14.43
2023-05-12T12:59:40.414Z,11.95
2023-05-12T13:02:09.066Z,11.15
2023-05-12T13:04:37.669Z,10.45
2023-05-12T13:07:06.004Z,11.23
2023-05-12T13:09:35.389Z,10.55
2023-05-12T13:12:03.696Z,11.23
2023-05-12T13:14:31.811Z,11.25
2023-05-12T13:17:01.385Z,12.23
2023-05-12T13:19:29.653Z,11.88
2023-05-12T13:21:57.795Z,11.10
2023-05-12T13:24:26.009Z,12.18
2023-05-12T13:26:54.244Z,12.18
2023-05-12T13:29:22.447Z,12.05
2023-05-12T13:31:50.657Z,12.10
2023-05-12T13:34:21.293Z,13.07
2023-05-12T13:36:49.535Z,9.43
2023-05-12T13:39:19.507Z,8.73
2023-05-12T13:41:47.922Z,10.70
2023-05-12T13:44:16.093Z,10.85
2023-05-12T13:46:44.316Z,11.93
2023-05-12T13:49:12.894Z,10.38
2023-05-12T13:51:45.454Z,9.75
2023-05-12T13:54:13.585Z,10.65
2023-05-12T13:56:41.872Z,10.45
2023-05-12T13:59:10.410Z,10.82
2023-05-12T14:01:39.159Z,12.45
2023-05-12T14:04:07.420Z,12.15
2023-05-12T14:06:35.720Z,11.48
2023-05-12T14:09:06.012Z,11.35
2023-05-12T14:11:34.179Z,12.43
2023-05-12T14:14:03.357Z,11.27
2023-05-12T14:16:31.674Z,11.52
2023-05-12T14:19:00.793Z,12.50
2023-05-12T14:21:28.971Z,10.82
2023-05-12T14:23:57.120Z,10.68
2023-05-12T14:26:26.644Z,10.05
2023-05-12T14:28:54.826Z,9.65
2023-05-12T14:31:23.093Z,9.93
2023-05-12T14:33:52.224Z,10.98
2023-05-12T14:36:20.707Z,10.80
2023-05-12T14:38:49.662Z,10.52
2023-05-12T14:41:17.874Z,11.15
2023-05-12T14:43:47.371Z,10.10
2023-05-12T14:46:16.044Z,10.00
2023-05-12T14:48:44.383Z,10.20
2023-05-12T14:51:12.510Z,10.82
2023-05-12T14:53:40.714Z,9.68
2023-05-12T14:56:08.864Z,9.63
2023-05-12T14:58:37.071Z,9.07
2023-05-12T15:01:09.283Z,9.43
2023-05-12T15:03:37.797Z,8.32
2023-05-12T15:06:07.861Z,8.70
2023-05-12T15:08:36.521Z,10.82
2023-05-12T15:11:04.762Z,9.70
2023-05-12T15:13:32.949Z,11.30
2023-05-12T15:16:01.376Z,8.43
2023-05-12T15:18:30.966Z,9.10
2023-05-12T15:20:59.261Z,10.77
2023-05-12T15:23:27.411Z,10.20
2023-05-12T15:25:55.515Z,8.70
2023-05-12T15:28:23.708Z,8.70
2023-05-12T15:31:01.161Z,8.57
2023-05-12T15:33:32.204Z,8.77
2023-05-12T15:36:00.777Z,9.05
2023-05-12T15:38:28.912Z,8.05
2023-05-12T15:40:57.071Z,8.32
2023-05-12T15:43:25.275Z,10.20
2023-05-12T15:45:53.474Z,6.63
2023-05-12T15:48:21.721Z,7.47
2023-05-12T15:50:51.286Z,6.18
2023-05-12T15:53:19.428Z,6.63
2023-05-12T15:55:48.662Z,8.02
2023-05-12T15:58:16.889Z,6.63
2023-05-12T16:00:45.178Z,8.25
2023-05-12T16:03:13.624Z,6.82
2023-05-12T16:05:41.837Z,6.18
2023-05-12T16:08:11.369Z,6.10
2023-05-12T16:10:39.533Z,6.03
2023-05-12T16:13:07.683Z,5.82
2023-05-12T16:15:35.937Z,5.55
2023-05-12T16:18:06.415Z,5.30
2023-05-12T16:20:35.954Z,4.93
2023-05-12T16:23:04.599Z,5.03
2023-05-12T16:25:34.156Z,5.90
2023-05-12T16:28:02.338Z,5.53
2023-05-12T16:30:30.561Z,8.15
2023-05-12T16:32:58.723Z,6.40
2023-05-12T16:35:26.947Z,9.55
2023-05-12T16:37:55.412Z,10.00
2023-05-12T16:40:23.529Z,10.73
2023-05-12T16:42:54.771Z,9.45
2023-05-12T16:45:23.440Z,8.60
2023-05-12T16:47:52.210Z,13.07
2023-05-12T16:50:20.550Z,8.50
2023-05-12T16:52:48.763Z,12.25
2023-05-12T16:55:16.913Z,10.80
2023-05-12T16:57:45.102Z,11.43
2023-05-12T17:00:15.496Z,12.93
2023-05-12T17:02:43.817Z,10.65
2023-05-12T17:05:12.330Z,17.10
2023-05-12T17:07:40.507Z,13.27
2023-05-12T17:10:08.974Z,14.93
2023-05-12T17:12:37.677Z,15.48
2023-05-12T17:15:08.511Z,13.77
2023-05-12T17:17:38.409Z,14.88
2023-05-12T17:20:06.951Z,11.73
2023-05-12T17:22:41.193Z,12.98
2023-05-12T17:25:09.740Z,12.77
2023-05-12T17:27:37.919Z,13.02
2023-05-12T17:30:06.470Z,4.15
2023-05-12T17:32:34.692Z,4.10
2023-05-12T17:35:04.450Z,3.72
2023-05-12T17:37:33.549Z,4.60
2023-05-12T17:40:01.780Z,7.18
2023-05-12T17:42:31.366Z,8.57
2023-05-12T17:44:59.685Z,6.40
2023-05-12T17:47:28.308Z,4.03
2023-05-12T17:49:56.605Z,3.72
2023-05-12T17:52:26.262Z,5.03
2023-05-12T17:54:57.202Z,4.03
2023-05-12T17:57:25.619Z,4.97
2023-05-12T17:59:53.778Z,4.55
2023-05-12T18:02:22.066Z,5.18
2023-05-12T18:04:50.311Z,4.65
2023-05-12T18:07:18.490Z,4.50
2023-05-12T18:09:47.950Z,3.75
2023-05-12T18:12:17.986Z,5.28
2023-05-12T18:14:46.646Z,8.35
2023-05-12T18:17:15.204Z,7.90
2023-05-12T18:19:43.455Z,6.05
2023-05-12T18:22:11.679Z,6.28
2023-05-12T18:24:39.858Z,7.15
2023-05-12T18:27:09.386Z,7.95
2023-05-12T18:29:37.533Z,11.38
2023-05-12T18:32:06.048Z,8.40
2023-05-12T18:34:34.246Z,9.30
2023-05-12T18:37:02.781Z,10.95
2023-05-12T18:39:31.014Z,8.80
2023-05-12T18:41:59.201Z,11.32
2023-05-12T18:44:28.939Z,8.97
2023-05-12T18:46:57.121Z,12.65
2023-05-12T18:49:25.320Z,9.63
2023-05-12T18:51:53.473Z,12.98
2023-05-12T18:54:21.667Z,14.52
2023-05-12T18:56:50.816Z,13.13
2023-05-12T18:59:19.256Z,11.68
2023-05-12T19:01:48.843Z,13.07
2023-05-12T19:04:17.224Z,15.27
2023-05-12T19:06:45.388Z,14.65
2023-05-12T19:09:13.539Z,14.80
2023-05-12T19:11:42.451Z,18.77
2023-05-12T19:14:10.659Z,18.27
2023-05-12T19:16:39.845Z,20.13
2023-05-12T19:19:09.548Z,25.15
2023-05-12T19:21:37.872Z,21.85
2023-05-12T19:24:06.196Z,22.25
2023-05-12T19:26:34.401Z,21.42
2023-05-12T19:29:02.602Z,22.02
2023-05-12T19:31:31.883Z,31.40
2023-05-12T19:34:00.030Z,31.90
2023-05-12T19:36:29.789Z,27.02
2023-05-12T19:38:59.604Z,23.50
2023-05-12T19:41:28.518Z,26.42
2023-05-12T19:43:56.730Z,24.15
2023-05-12T19:46:24.978Z,29.83
2023-05-12T19:48:53.673Z,24.65
2023-05-12T19:51:21.838Z,28.63
2023-05-12T19:53:51.353Z,26.40
2023-05-12T19:56:19.733Z,28.33
2023-05-12T19:58:47.984Z,28.75
2023-05-12T20:01:16.121Z,22.02
2023-05-12T20:03:44.346Z,21.27
2023-05-12T20:06:12.604Z,22.70
2023-05-12T20:08:40.790Z,23.87
2023-05-12T20:11:10.310Z,24.83
2023-05-12T20:13:38.427Z,26.30
2023-05-12T20:16:06.965Z,21.30
2023-05-12T20:18:35.388Z,26.33
2023-05-12T20:21:03.585Z,25.67
2023-05-12T20:23:32.058Z,25.05
2023-05-12T20:26:00.219Z,24.55
2023-05-12T20:28:29.776Z,26.50
2023-05-12T20:30:57.975Z,25.33
2023-05-12T20:33:26.191Z,23.57
2023-05-12T20:35:54.326Z,26.30
2023-05-12T20:38:24.221Z,25.13
2023-05-12T20:40:52.392Z,22.48
2023-05-12T20:43:20.597Z,26.48
2023-05-12T20:45:50.207Z,22.83
2023-05-12T20:48:18.410Z,23.10
2023-05-12T20:50:46.635Z,23.60
2023-05-12T20:53:15.068Z,19.30
2023-05-12T20:55:43.954Z,20.20
2023-05-12T20:58:12.064Z,17.73
2023-05-12T21:00:40.236Z,17.13
2023-05-12T21:03:14.380Z,16.60
2023-05-12T21:05:47.569Z,16.20
2023-05-12T21:08:15.881Z,21.30
2023-05-12T21:10:44.078Z,18.33
2023-05-12T21:13:12.368Z,18.87
2023-05-12T21:15:40.600Z,21.43
2023-05-12T21:18:10.145Z,16.10
2023-05-12T21:20:38.885Z,14.23
2023-05-12T21:23:09.315Z,20.50
2023-05-12T21:25:37.450Z,16.07
2023-05-12T21:28:05.796Z,15.77
2023-05-12T21:30:35.673Z,16.10
2023-05-12T21:33:05.174Z,16.40
2023-05-12T21:35:34.744Z,13.80
2023-05-12T21:38:02.948Z,18.30
2023-05-12T21:40:31.058Z,14.57
2023-05-12T21:42:59.276Z,15.60
2023-05-12T21:45:27.365Z,15.88
2023-05-12T21:47:55.656Z,12.93
2023-05-12T21:50:23.796Z,13.73
2023-05-12T21:52:53.343Z,15.43
2023-05-12T21:55:21.595Z,13.63
2023-05-12T21:57:49.814Z,14.30
2023-05-12T22:00:19.959Z,13.57
2023-05-12T22:02:48.834Z,14.77
2023-05-12T22:05:17.102Z,15.60
2023-05-12T22:07:45.218Z,15.60
2023-05-12T22:10:14.718Z,16.07
2023-05-12T22:12:43.030Z,16.67
2023-05-12T22:15:11.536Z,15.18
2023-05-12T22:17:39.710Z,16.80
2023-05-12T22:20:09.110Z,14.70
2023-05-12T22:22:37.350Z,14.53
2023-05-12T22:25:05.805Z,14.77
2023-05-12T22:27:35.315Z,17.53
2023-05-12T22:30:03.619Z,17.47
2023-05-12T22:32:31.888Z,17.10
2023-05-12T22:35:00.114Z,17.93
2023-05-12T22:37:28.366Z,15.07
2023-05-12T22:39:56.590Z,16.07
2023-05-12T22:42:24.770Z,15.87
2023-05-12T22:44:54.377Z,16.87
2023-05-12T22:47:22.599Z,16.43
2023-05-12T22:49:50.908Z,17.27
2023-05-12T22:52:19.147Z,16.10
2023-05-12T22:54:47.319Z,17.63
2023-05-12T22:57:15.522Z,17.33
2023-05-12T22:59:43.698Z,17.20
2023-05-12T23:02:13.246Z,17.90
2023-05-12T23:04:41.461Z,17.70
2023-05-12T23:07:09.936Z,17.93
2023-05-12T23:09:38.164Z,17.97
2023-05-12T23:12:07.121Z,18.30
2023-05-12T23:14:35.352Z,18.23
2023-05-12T23:17:03.621Z,17.57
2023-05-12T23:19:33.156Z,17.50
2023-05-12T23:22:01.289Z,19.27
2023-05-12T23:24:29.483Z,18.00
2023-05-12T23:26:57.620Z,17.60
2023-05-12T23:29:25.964Z,17.43
2023-05-12T23:31:54.271Z,16.97
2023-05-12T23:34:22.559Z,17.47
2023-05-12T23:36:52.165Z,17.33
2023-05-12T23:39:20.348Z,16.97
2023-05-12T23:41:49.551Z,15.97
2023-05-12T23:44:18.180Z,16.30
2023-05-12T23:46:46.489Z,16.30
2023-05-12T23:49:14.778Z,17.30
2023-05-12T23:51:42.948Z,17.33
2023-05-12T23:54:12.428Z,16.87
2023-05-12T23:56:40.721Z,16.33
2023-05-12T23:59:09.086Z,15.30
